Time;durP1;ratioP1;P1;durP2;ratioP2;P2;SDS_P1;SDS_P2;PMS_P1;PMS_P2;Temp;Humidity;BMP_temperature;BMP_pressure;BME280_temperature;BME280_humidity;BME280_pressure;Samples;Min_cycle;Max_cycle;Signal;HPM_P1;HPM_P2
2021/08/20 00:00:08;;;;;;;5.90;5.10;;;;;;;17.61;67.99;100985.13;5039594;28;20285;-70
2021/08/20 00:02:34;;;;;;;8.00;6.00;;;;;;;17.75;67.51;100983.16;5040129;28;20408;-71
2021/08/20 00:04:59;;;;;;;7.40;5.83;;;;;;;17.64;67.73;100979.78;5039461;28;20504;-71
2021/08/20 00:07:24;;;;;;;11.40;5.87;;;;;;;17.86;67.18;100985.63;5039506;28;20559;-71
2021/08/20 00:09:50;;;;;;;7.37;5.43;;;;;;;17.71;67.57;100985.84;5039840;28;20470;-71
2021/08/20 00:12:16;;;;;;;8.10;5.70;;;;;;;17.51;68.03;100990.53;5039682;28;20224;-71
2021/08/20 00:14:41;;;;;;;9.10;6.00;;;;;;;17.83;67.49;100996.19;5039244;28;20481;-71
2021/08/20 00:17:06;;;;;;;9.37;6.00;;;;;;;17.64;67.79;100982.44;5039955;28;20535;-71
2021/08/20 00:19:34;;;;;;;8.47;6.27;;;;;;;17.69;67.80;100983.25;5039331;28;20206;-71
2021/08/20 00:21:59;;;;;;;7.50;6.43;;;;;;;17.65;67.49;100981.53;5039275;28;20170;-71
2021/08/20 00:24:24;;;;;;;9.57;5.90;;;;;;;17.51;67.79;100987.03;5039050;28;20464;-71
2021/08/20 00:26:50;;;;;;;9.30;6.00;;;;;;;17.38;68.71;100986.34;5039202;28;20170;-71
2021/08/20 00:29:15;;;;;;;8.60;6.30;;;;;;;17.65;67.38;100982.41;5039303;28;20166;-70
2021/08/20 00:31:40;;;;;;;9.03;6.63;;;;;;;17.28;68.61;100985.59;5039237;28;20194;-71
2021/08/20 00:34:05;;;;;;;8.33;6.70;;;;;;;17.44;68.29;100978.34;5021776;28;20180;-70
2021/08/20 00:36:34;;;;;;;7.00;6.30;;;;;;;17.25;68.71;100979.50;5039482;28;20166;-72
2021/08/20 00:38:59;;;;;;;7.33;6.30;;;;;;;17.39;68.40;100981.97;5020825;28;20267;-71
2021/08/20 00:41:24;;;;;;;9.13;6.67;;;;;;;17.38;68.05;100983.69;5038833;28;20509;-71
2021/08/20 00:43:50;;;;;;;8.60;6.63;;;;;;;17.55;67.36;100979.94;5039102;28;20255;-71
2021/08/20 00:46:15;;;;;;;7.60;5.93;;;;;;;17.24;68.29;100977.75;5021700;28;20170;-71
2021/08/20 00:48:41;;;;;;;10.53;7.53;;;;;;;17.21;68.70;100969.91;5021572;28;20206;-71
2021/08/20 00:51:16;;;;;;;12.60;7.30;;;;;;;17.12;68.96;100977.03;5039230;28;20162;-71
2021/08/20 00:53:42;;;;;;;13.37;6.60;;;;;;;17.09;69.34;100977.09;5038584;28;20248;-71
2021/08/20 00:56:08;;;;;;;7.67;6.90;;;;;;;16.88;69.61;100979.97;5038514;28;20523;-71
2021/08/20 00:58:33;;;;;;;14.23;12.70;;;;;;;17.14;68.90;100977.91;5038443;28;20420;-71
2021/08/20 01:00:59;;;;;;;9.50;8.60;;;;;;;17.06;69.03;100982.41;5021430;28;20230;-71
2021/08/20 01:03:28;;;;;;;7.50;6.23;;;;;;;17.05;69.53;100983.28;5038893;28;20192;-70
2021/08/20 01:05:54;;;;;;;7.67;6.50;;;;;;;17.34;68.58;100982.00;5038378;28;20189;-71
2021/08/20 01:08:27;;;;;;;7.10;6.40;;;;;;;16.98;69.00;100976.34;5038407;28;20795;-71
2021/08/20 01:10:55;;;;;;;9.40;8.30;;;;;;;17.17;68.89;100983.13;5038497;28;20170;-71
2021/08/20 01:13:20;;;;;;;10.10;7.60;;;;;;;17.28;68.32;100976.84;5038298;28;20440;-71
2021/08/20 01:15:46;;;;;;;8.70;6.90;;;;;;;16.95;69.53;100985.19;5038650;28;20455;-70
2021/08/20 01:18:20;;;;;;;8.23;7.00;;;;;;;17.06;69.46;100981.53;5038328;28;20166;-71
2021/08/20 01:20:45;;;;;;;8.90;7.27;;;;;;;16.99;69.70;100984.25;5038284;28;20469;-70
2021/08/20 01:23:11;;;;;;;8.37;7.33;;;;;;;17.20;69.27;100983.97;5038400;28;20488;-71
2021/08/20 01:25:36;;;;;;;7.50;6.47;;;;;;;16.99;70.33;100986.00;5020924;28;20248;-71
2021/08/20 01:28:07;;;;;;;9.53;7.27;;;;;;;17.02;70.15;100985.94;5038298;28;20178;-70
2021/08/20 01:30:33;;;;;;;10.90;7.83;;;;;;;16.95;69.72;100989.56;5038698;28;20224;-72
2021/08/20 01:32:58;;;;;;;10.87;8.00;;;;;;;17.20;69.13;100974.31;5038126;28;20416;-72
2021/08/20 01:35:24;;;;;;;17.33;9.80;;;;;;;17.35;69.20;100973.22;5038256;28;20170;-71
2021/08/20 01:37:49;;;;;;;8.20;7.40;;;;;;;17.11;69.72;100967.38;5038498;28;20166;-72
2021/08/20 01:40:14;;;;;;;9.53;7.47;;;;;;;17.15;69.68;100966.44;5037863;28;20222;-71
2021/08/20 01:42:40;;;;;;;11.00;7.90;;;;;;;17.25;69.36;100974.22;5037997;28;20499;-71
2021/08/20 01:45:05;;;;;;;8.90;7.20;;;;;;;17.13;69.84;100968.25;5038407;28;20249;-71
2021/08/20 01:47:31;;;;;;;8.47;7.33;;;;;;;17.22;70.03;100963.75;5038087;28;20212;-70
2021/08/20 01:49:56;;;;;;;8.40;7.43;;;;;;;17.08;70.08;100964.81;5039807;28;20200;-71
2021/08/20 01:52:21;;;;;;;9.23;7.03;;;;;;;16.97;70.63;100961.47;5042590;28;20170;-71
2021/08/20 01:54:46;;;;;;;9.63;7.50;;;;;;;16.85;71.13;100962.44;5041869;28;20249;-70
2021/08/20 01:57:12;;;;;;;8.90;6.93;;;;;;;17.36;69.74;100951.25;5042071;28;20219;-71
2021/08/20 01:59:38;;;;;;;8.77;7.30;;;;;;;17.32;69.80;100958.31;5042371;28;20198;-71
2021/08/20 02:02:04;;;;;;;8.90;7.33;;;;;;;17.20;70.38;100957.59;5041968;28;20228;-71
2021/08/20 02:04:29;;;;;;;8.07;7.10;;;;;;;17.19;70.56;100959.38;5041807;28;20413;-71
2021/08/20 02:06:54;;;;;;;11.30;7.50;;;;;;;17.08;70.82;100962.19;5042324;28;20380;-71
2021/08/20 02:09:20;;;;;;;13.20;8.07;;;;;;;16.95;71.72;100960.59;5041681;28;20551;-70
2021/08/20 02:11:45;;;;;;;9.27;7.23;;;;;;;17.15;71.54;100962.97;5041648;28;20166;-72
2021/08/20 02:14:10;;;;;;;11.70;7.87;;;;;;;17.07;72.52;100968.31;5041980;28;20163;-72
2021/08/20 02:16:35;;;;;;;8.40;7.30;;;;;;;16.77;72.85;100965.16;5041587;28;20181;-71
2021/08/20 02:19:01;;;;;;;10.43;8.37;;;;;;;16.88;73.43;100970.31;5041496;28;20197;-71
2021/08/20 02:21:26;;;;;;;9.33;7.60;;;;;;;16.92;73.20;100971.19;5042084;28;20401;-71
2021/08/20 02:23:51;;;;;;;11.10;7.97;;;;;;;16.85;73.37;100972.97;5041333;28;20245;-71
2021/08/20 02:26:17;;;;;;;9.73;8.50;;;;;;;16.92;73.47;100972.03;5041732;28;20174;-70
2021/08/20 02:28:43;;;;;;;8.43;7.53;;;;;;;16.65;74.14;100965.31;5041683;28;20163;-70
2021/08/20 02:31:08;;;;;;;9.23;7.70;;;;;;;16.38;75.41;100963.88;5043908;28;20433;-71
2021/08/20 02:33:34;;;;;;;11.47;7.80;;;;;;;16.48;75.36;100963.75;5044708;28;20471;-71
2021/08/20 02:36:02;;;;;;;9.97;8.27;;;;;;;16.91;74.26;100966.78;5045113;28;20594;-71
2021/08/20 02:38:27;;;;;;;13.97;8.37;;;;;;;16.67;74.89;100966.19;5041148;28;20559;-71
2021/08/20 02:40:53;;;;;;;11.30;8.50;;;;;;;16.58;75.49;100971.56;5041090;28;20456;-71
2021/08/20 02:43:18;;;;;;;11.20;8.50;;;;;;;16.33;76.81;100970.06;5041464;28;20225;-71
2021/08/20 02:45:43;;;;;;;11.37;8.50;;;;;;;16.23;76.78;100975.44;5041257;28;20174;-71
2021/08/20 02:48:08;;;;;;;10.77;8.40;;;;;;;16.25;77.01;100977.19;5041051;28;20186;-71
2021/08/20 02:50:34;;;;;;;10.33;8.20;;;;;;;16.54;76.30;100969.84;5041949;28;20182;-70
2021/08/20 02:52:59;;;;;;;15.20;8.80;;;;;;;16.47;76.29;100969.91;5041029;28;20532;-71
2021/08/20 02:55:25;;;;;;;12.97;8.27;;;;;;;16.41;76.58;100971.75;5041035;28;20214;-71
2021/08/20 02:57:50;;;;;;;8.97;7.80;;;;;;;16.43;76.33;100965.56;5041672;28;20212;-71
2021/08/20 03:00:16;;;;;;;12.00;8.60;;;;;;;16.43;76.37;100973.47;5040603;28;20335;-71
2021/08/20 03:02:41;;;;;;;13.73;8.70;;;;;;;16.52;76.14;100966.34;5040064;28;20546;-71
2021/08/20 03:05:07;;;;;;;12.57;8.70;;;;;;;16.43;76.39;100962.94;5041061;28;20170;-71
2021/08/20 03:07:32;;;;;;;9.73;8.30;;;;;;;16.49;76.73;100960.25;5040624;28;20295;-72
2021/08/20 03:09:57;;;;;;;14.10;9.00;;;;;;;16.39;76.83;100958.59;5040762;28;20391;-71
2021/08/20 03:12:24;;;;;;;10.40;9.17;;;;;;;16.54;76.03;100959.31;5041156;28;20170;-71
2021/08/20 03:14:50;;;;;;;10.90;8.40;;;;;;;16.15;77.50;100963.22;5040284;28;20217;-70
2021/08/20 03:17:15;;;;;;;15.00;9.10;;;;;;;16.17;77.60;100963.22;5040432;28;20684;-71
2021/08/20 03:19:41;;;;;;;9.63;8.63;;;;;;;16.62;76.39;100960.97;5041127;28;20615;-72
2021/08/20 03:22:06;;;;;;;11.70;9.63;;;;;;;16.06;77.72;100952.81;5040562;28;20174;-71
2021/08/20 03:24:31;;;;;;;9.67;8.40;;;;;;;16.55;76.58;100951.41;5040041;28;20214;-70
2021/08/20 03:26:57;;;;;;;8.93;7.90;;;;;;;16.68;76.30;100962.66;5040874;28;20177;-71
2021/08/20 03:29:22;;;;;;;10.20;8.90;;;;;;;16.78;75.65;100961.66;5040239;28;20174;-71
2021/08/20 03:31:47;;;;;;;11.10;8.77;;;;;;;16.47;76.75;100956.75;5040215;28;20174;-71
2021/08/20 03:34:12;;;;;;;13.60;9.53;;;;;;;16.53;76.99;100960.22;5040715;28;20613;-71
2021/08/20 03:36:38;;;;;;;11.00;8.60;;;;;;;16.72;76.15;100955.59;5040162;28;20261;-70
2021/08/20 03:39:03;;;;;;;13.07;9.53;;;;;;;16.71;76.37;100959.09;5040123;28;20206;-71
2021/08/20 03:41:29;;;;;;;13.00;8.73;;;;;;;16.58;76.85;100958.41;5040313;28;20192;-71
2021/08/20 03:43:54;;;;;;;9.80;8.80;;;;;;;16.64;76.26;100961.84;5039701;28;20581;-71
2021/08/20 03:46:19;;;;;;;13.10;9.23;;;;;;;16.74;75.93;100957.31;5040038;28;20245;-71
2021/08/20 03:48:45;;;;;;;10.47;8.63;;;;;;;16.22;77.23;100961.41;5040213;28;20554;-71
2021/08/20 03:51:11;;;;;;;10.23;8.40;;;;;;;16.52;76.21;100956.72;5039905;28;20182;-70
2021/08/20 03:53:36;;;;;;;9.77;8.43;;;;;;;16.67;75.98;100953.88;5022479;28;20210;-70
2021/08/20 03:56:02;;;;;;;10.37;8.40;;;;;;;16.53;75.49;100953.19;5040132;28;20743;-71
2021/08/20 03:58:27;;;;;;;11.30;8.60;;;;;;;16.40;76.39;100957.72;5039645;28;20249;-71
2021/08/20 04:00:52;;;;;;;12.10;9.90;;;;;;;16.57;75.79;100964.56;5039651;28;20206;-71
2021/08/20 04:03:19;;;;;;;12.00;8.30;;;;;;;16.66;76.13;100962.66;5039990;28;20205;-70
2021/08/20 04:05:44;;;;;;;9.53;8.63;;;;;;;16.64;75.46;100963.56;5022466;28;20181;-70
2021/08/20 04:08:09;;;;;;;11.80;9.83;;;;;;;16.73;76.24;100968.72;5039520;28;20387;-71
2021/08/20 04:10:35;;;;;;;15.70;9.70;;;;;;;16.63;75.56;100967.13;5022829;28;20574;-71
2021/08/20 04:13:00;;;;;;;11.73;8.73;;;;;;;16.32;76.53;100968.31;5039271;28;20170;-70
2021/08/20 04:15:25;;;;;;;12.80;8.70;;;;;;;16.56;75.95;100970.69;5039423;28;20174;-70
2021/08/20 04:17:50;;;;;;;13.13;9.60;;;;;;;16.54;75.89;100972.50;5039715;28;20173;-71
2021/08/20 04:20:16;;;;;;;11.03;9.73;;;;;;;16.39;75.66;100968.28;5039295;28;20509;-71
2021/08/20 04:22:41;;;;;;;10.40;8.57;;;;;;;16.69;74.21;100972.28;5039442;28;20204;-71
2021/08/20 04:25:07;;;;;;;8.80;7.47;;;;;;;16.59;74.96;100973.28;5039265;28;20225;-71
2021/08/20 04:27:32;;;;;;;11.53;8.07;;;;;;;16.60;75.40;100980.28;5039899;28;20531;-71
2021/08/20 04:29:57;;;;;;;10.30;8.60;;;;;;;16.64;73.85;100984.63;5039626;28;20178;-71
2021/08/20 04:32:26;;;;;;;8.90;8.00;;;;;;;16.44;75.70;100985.75;5039165;28;20180;-70
2021/08/20 04:34:51;;;;;;;9.57;8.67;;;;;;;16.76;73.65;100984.47;5039017;28;20174;-71
2021/08/20 04:37:19;;;;;;;8.03;7.23;;;;;;;16.73;73.11;100992.44;5039565;28;20415;-71
2021/08/20 04:39:45;;;;;;;7.00;6.30;;;;;;;16.61;72.52;100988.16;5038819;28;20210;-71
2021/08/20 04:42:10;;;;;;;8.50;6.83;;;;;;;16.79;72.50;100984.47;5038690;28;20417;-71
2021/08/20 04:44:35;;;;;;;8.00;6.87;;;;;;;16.52;73.46;100990.94;5039125;28;20205;-71
2021/08/20 04:47:01;;;;;;;7.47;6.27;;;;;;;16.63;73.16;100986.41;5038775;28;20497;-71
2021/08/20 04:49:26;;;;;;;7.30;6.60;;;;;;;16.49;74.60;100993.56;5038757;28;20224;-72
2021/08/20 04:51:52;;;;;;;9.77;6.93;;;;;;;16.77;73.41;100996.75;5039452;28;20166;-71
2021/08/20 04:54:17;;;;;;;9.63;7.17;;;;;;;16.69;73.60;101001.25;5038514;28;20179;-71
2021/08/20 04:56:42;;;;;;;8.10;7.30;;;;;;;16.39;74.74;100995.44;5038694;28;20245;-72
2021/08/20 04:59:07;;;;;;;9.03;6.70;;;;;;;16.45;73.90;100987.50;5039157;28;20523;-70
2021/08/20 05:01:33;;;;;;;9.20;7.87;;;;;;;16.95;71.95;100989.56;5038672;28;20186;-70
2021/08/20 05:03:58;;;;;;;9.70;7.23;;;;;;;16.76;73.26;100992.38;5038551;28;20254;-70
2021/08/20 05:06:24;;;;;;;9.90;7.53;;;;;;;16.95;72.53;101000.09;5039084;28;20206;-72
2021/08/20 05:08:49;;;;;;;8.93;6.97;;;;;;;17.08;71.99;101004.31;5038452;28;20170;-71
2021/08/20 05:11:14;;;;;;;7.87;6.63;;;;;;;16.72;73.63;101006.47;5038474;28;20181;-70
2021/08/20 05:13:40;;;;;;;7.40;6.70;;;;;;;16.95;72.62;101006.25;5038530;28;20165;-71
2021/08/20 05:16:05;;;;;;;7.43;6.73;;;;;;;16.99;72.18;101004.44;5038137;28;20175;-71
2021/08/20 05:18:30;;;;;;;9.97;6.90;;;;;;;16.51;74.22;100999.72;5038316;28;20158;-71
2021/08/20 05:20:55;;;;;;;7.53;6.83;;;;;;;16.53;74.42;101010.22;5038782;28;20198;-71
2021/08/20 05:23:21;;;;;;;8.87;7.50;;;;;;;16.80;73.83;101001.97;5038189;28;20232;-71
2021/08/20 05:25:46;;;;;;;7.43;6.70;;;;;;;16.78;74.43;101009.03;5037499;28;20230;-71
2021/08/20 05:28:12;;;;;;;9.53;7.17;;;;;;;16.56;75.41;101016.31;5039046;28;20197;-71
2021/08/20 05:30:38;;;;;;;7.70;6.90;;;;;;;16.59;74.60;101016.28;5037971;28;20185;-71
2021/08/20 05:33:04;;;;;;;7.43;6.73;;;;;;;16.63;74.84;101014.50;5037929;28;20420;-71
2021/08/20 05:35:29;;;;;;;9.03;7.33;;;;;;;17.06;72.82;101014.03;5038463;28;20174;-71
2021/08/20 05:37:54;;;;;;;9.03;7.17;;;;;;;17.36;71.68;101011.88;5038078;28;20170;-71
2021/08/20 05:40:20;;;;;;;7.90;6.93;;;;;;;17.43;71.28;101016.13;5037951;28;20532;-71
2021/08/20 05:42:45;;;;;;;9.10;8.13;;;;;;;17.39;71.69;101017.06;5038314;28;20281;-71
2021/08/20 05:45:11;;;;;;;7.80;7.00;;;;;;;17.46;71.19;101013.44;5038081;28;20511;-71
2021/08/20 05:47:36;;;;;;;9.13;7.67;;;;;;;17.61;71.10;101022.03;5020720;28;20178;-70
2021/08/20 05:50:02;;;;;;;8.67;7.30;;;;;;;17.41;72.15;101017.91;5038490;28;20524;-71
2021/08/20 05:52:27;;;;;;;9.83;7.67;;;;;;;17.07;73.46;101026.28;5037791;28;20450;-70
2021/08/20 05:54:53;;;;;;;9.37;8.30;;;;;;;17.04;73.91;101028.97;5037607;28;20674;-71
2021/08/20 05:57:18;;;;;;;9.03;8.13;;;;;;;17.33;72.45;101022.41;5038090;28;20220;-71
2021/08/20 05:59:44;;;;;;;11.43;9.10;;;;;;;17.23;72.77;101026.94;5037980;28;20216;-71
2021/08/20 06:02:09;;;;;;;10.97;9.27;;;;;;;17.34;73.31;101024.16;5037854;28;20236;-70
2021/08/20 06:04:34;;;;;;;9.50;8.50;;;;;;;17.53;71.20;101031.81;5038092;28;20174;-71
2021/08/20 06:07:00;;;;;;;11.50;9.60;;;;;;;17.60;70.79;101034.34;5037674;28;20450;-69
2021/08/20 06:09:25;;;;;;;11.67;10.57;;;;;;;17.69;70.70;101028.06;5037695;28;20182;-70
2021/08/20 06:11:51;;;;;;;8.90;8.00;;;;;;;17.82;69.76;101034.03;5038183;28;20232;-71
2021/08/20 06:14:16;;;;;;;10.30;9.20;;;;;;;17.51;71.71;101032.72;5037693;28;20174;-70
2021/08/20 06:16:41;;;;;;;9.90;9.00;;;;;;;17.63;71.34;101020.22;5037676;28;20170;-70
2021/08/20 06:19:07;;;;;;;12.87;9.47;;;;;;;17.62;71.34;101015.88;5038225;28;20230;-70
2021/08/20 06:21:32;;;;;;;10.00;9.00;;;;;;;17.36;72.75;101022.41;5037798;28;20182;-69
2021/08/20 06:23:57;;;;;;;10.20;9.30;;;;;;;17.26;73.27;101019.00;5037448;28;20297;-71
2021/08/20 06:26:23;;;;;;;10.97;9.87;;;;;;;17.33;73.50;101015.41;5038038;28;20174;-71
2021/08/20 06:28:48;;;;;;;12.83;9.53;;;;;;;17.46;73.01;101018.72;5037453;28;20478;-71
2021/08/20 06:31:13;;;;;;;8.80;8.00;;;;;;;17.36;72.57;101026.78;5037391;28;20177;-71
2021/08/20 06:33:39;;;;;;;9.50;8.40;;;;;;;17.38;72.88;101022.38;5038073;28;20448;-71
2021/08/20 06:36:04;;;;;;;8.47;7.77;;;;;;;17.48;72.63;101021.34;5037885;28;20185;-71
2021/08/20 06:38:29;;;;;;;9.00;8.20;;;;;;;17.51;72.76;101023.94;5041345;28;20182;-70
2021/08/20 06:40:55;;;;;;;8.47;7.67;;;;;;;17.60;72.33;101031.72;5041633;28;20238;-70
2021/08/20 06:43:20;;;;;;;10.70;8.00;;;;;;;18.01;71.33;101032.00;5041034;28;20175;-73
2021/08/20 06:45:46;;;;;;;7.97;7.13;;;;;;;17.82;71.70;101039.31;5041058;28;20171;-72
2021/08/20 06:48:11;;;;;;;7.43;6.73;;;;;;;17.83;71.26;101043.66;5041630;28;20199;-72
2021/08/20 06:50:36;;;;;;;7.17;6.57;;;;;;;17.06;73.79;101050.00;5041031;28;20174;-72
2021/08/20 06:53:02;;;;;;;7.30;6.60;;;;;;;17.46;73.25;101050.34;5040820;28;20189;-70
2021/08/20 06:55:31;;;;;;;6.80;6.20;;;;;;;17.47;72.90;101057.38;5038849;28;20210;-70
2021/08/20 06:57:56;;;;;;;7.13;6.00;;;;;;;17.40;73.97;101062.75;5040709;28;20542;-71
2021/08/20 07:00:22;;;;;;;5.87;5.20;;;;;;;17.32;73.85;101062.88;5040627;28;20465;-71
2021/08/20 07:02:47;;;;;;;5.37;4.87;;;;;;;17.47;72.92;101060.00;5041139;28;20186;-75
2021/08/20 07:05:14;;;;;;;5.97;4.77;;;;;;;17.02;75.09;101064.97;5023463;28;20434;-75
2021/08/20 07:07:40;;;;;;;6.50;4.83;;;;;;;17.16;74.21;101070.94;5040787;28;20411;-75
2021/08/20 07:10:11;;;;;;;5.47;5.07;;;;;;;17.32;74.22;101068.13;5041136;28;20481;-75
2021/08/20 07:12:37;;;;;;;5.90;5.33;;;;;;;17.11;74.51;101070.13;5040833;28;20547;-75
2021/08/20 07:15:07;;;;;;;6.80;6.20;;;;;;;16.85;75.41;101065.16;5023140;28;20470;-74
2021/08/20 07:17:32;;;;;;;7.87;7.07;;;;;;;16.98;75.91;101064.16;5040450;28;20523;-75
2021/08/20 07:19:58;;;;;;;9.23;7.40;;;;;;;17.07;75.95;101067.56;5040417;28;20461;-76
2021/08/20 07:22:23;;;;;;;7.33;6.73;;;;;;;17.65;74.33;101066.78;5040752;28;20528;-75
2021/08/20 07:24:48;;;;;;;8.00;6.43;;;;;;;17.77;73.24;101064.88;5039933;28;20275;-76
2021/08/20 07:27:14;;;;;;;5.97;5.37;;;;;;;17.18;75.42;101068.28;5040394;28;20186;-74
2021/08/20 07:29:39;;;;;;;5.93;5.10;;;;;;;17.58;73.90;101064.28;5040418;28;20170;-73
2021/08/20 07:32:05;;;;;;;5.30;4.80;;;;;;;17.50;74.99;101073.13;5040106;28;20174;-74
2021/08/20 07:34:31;;;;;;;4.40;4.00;;;;;;;17.78;73.31;101071.88;5039764;28;20531;-73
2021/08/20 07:36:56;;;;;;;4.30;3.97;;;;;;;17.50;74.29;101072.28;5040571;28;20224;-76
2021/08/20 07:39:21;;;;;;;3.80;3.50;;;;;;;17.38;75.16;101072.44;5039811;28;20206;-77
2021/08/20 07:41:46;;;;;;;4.53;4.13;;;;;;;17.40;75.41;101071.53;5040043;28;20232;-73
2021/08/20 07:44:14;;;;;;;4.50;4.20;;;;;;;17.51;74.40;101080.16;5040173;28;20200;-75
2021/08/20 07:46:42;;;;;;;4.37;4.07;;;;;;;16.94;76.61;101077.34;5039699;28;20170;-74
2021/08/20 07:49:08;;;;;;;4.70;4.30;;;;;;;17.19;76.37;101079.72;5040345;28;20433;-74
2021/08/20 07:51:33;;;;;;;5.03;4.63;;;;;;;17.75;73.21;101078.09;5039990;28;20439;-75
2021/08/20 07:53:58;;;;;;;4.60;4.20;;;;;;;17.87;73.38;101089.34;5039569;28;20536;-75
2021/08/20 07:56:25;;;;;;;5.20;4.80;;;;;;;18.15;72.08;101085.38;5039530;28;20447;-74
2021/08/20 07:58:50;;;;;;;5.57;5.07;;;;;;;17.35;73.86;101083.91;5040106;28;20173;-75
2021/08/20 08:01:16;;;;;;;5.40;4.90;;;;;;;18.26;71.61;101087.00;5039821;28;20806;-75
2021/08/20 08:03:41;;;;;;;6.00;5.40;;;;;;;17.93;72.10;101086.66;5039226;28;20178;-75
2021/08/20 08:06:07;;;;;;;6.40;5.83;;;;;;;18.12;72.02;101092.50;5039898;28;20539;-75
2021/08/20 08:08:33;;;;;;;6.00;5.40;;;;;;;18.14;71.67;101083.66;5039498;28;20184;-75
2021/08/20 08:10:58;;;;;;;6.87;6.00;;;;;;;17.84;71.55;101087.59;5039467;28;20174;-75
2021/08/20 08:13:24;;;;;;;6.10;5.57;;;;;;;17.99;73.41;101095.31;5039948;28;20425;-74
2021/08/20 08:15:49;;;;;;;6.87;6.20;;;;;;;18.33;71.78;101083.34;5039395;28;20185;-74
2021/08/20 08:18:15;;;;;;;6.63;5.80;;;;;;;18.28;73.26;101083.44;5039377;28;20181;-74
2021/08/20 08:20:40;;;;;;;6.63;5.67;;;;;;;18.60;70.11;101086.41;5039785;28;20281;-74
2021/08/20 08:23:05;;;;;;;7.07;6.47;;;;;;;18.26;71.71;101089.63;5039027;28;20489;-75
2021/08/20 08:25:31;;;;;;;7.23;6.30;;;;;;;18.32;72.26;101085.13;5038927;28;20226;-74
2021/08/20 08:27:58;;;;;;;6.37;5.73;;;;;;;18.01;72.71;101090.03;5039680;28;20166;-74
2021/08/20 08:30:26;;;;;;;9.03;8.20;;;;;;;19.20;67.87;101074.72;5039132;28;20178;-74
2021/08/20 08:32:51;;;;;;;13.30;11.40;;;;;;;19.73;66.66;101085.00;5038977;28;20474;-74
2021/08/20 08:35:17;;;;;;;13.53;12.23;;;;;;;19.87;65.86;101091.78;5039299;28;20503;-74
2021/08/20 08:37:42;;;;;;;6.47;5.87;;;;;;;19.17;67.81;101102.06;5038842;28;20171;-73
2021/08/20 08:40:08;;;;;;;7.03;6.20;;;;;;;18.77;69.66;101097.53;5038922;28;20205;-77
2021/08/20 08:42:33;;;;;;;8.03;7.23;;;;;;;18.98;68.48;101090.09;5039271;28;20202;-77
2021/08/20 08:44:58;;;;;;;8.40;7.20;;;;;;;18.71;69.26;101094.97;5038635;28;20200;-75
2021/08/20 08:47:24;;;;;;;9.40;8.37;;;;;;;19.36;68.04;101091.09;5038662;28;20236;-73
2021/08/20 08:49:51;;;;;;;13.30;12.00;;;;;;;19.48;67.37;101088.22;5022122;28;20578;-73
2021/08/20 08:52:17;;;;;;;8.73;7.30;;;;;;;19.36;67.25;101088.44;5021471;28;20421;-74
2021/08/20 08:54:42;;;;;;;10.67;9.13;;;;;;;19.39;67.03;101093.69;5038631;28;20829;-74
2021/08/20 08:57:07;;;;;;;10.60;9.40;;;;;;;18.84;68.78;101093.84;5039173;28;20175;-75
2021/08/20 08:59:32;;;;;;;9.40;8.43;;;;;;;19.08;68.32;101106.66;5037515;28;20228;-78
2021/08/20 09:01:58;;;;;;;10.77;9.70;;;;;;;19.21;68.29;101102.00;5038405;28;20170;-79
2021/08/20 09:04:23;;;;;;;9.60;8.70;;;;;;;18.73;69.82;101113.47;5038736;28;20224;-78
2021/08/20 09:06:56;;;;;;;10.87;9.03;;;;;;;18.56;71.14;101108.47;5038403;28;20178;-77
2021/08/20 09:09:23;;;;;;;10.43;9.40;;;;;;;18.95;69.98;101106.03;5038695;28;20166;-75
2021/08/20 09:12:01;;;;;;;11.10;10.00;;;;;;;20.77;64.05;101086.00;5038252;28;20472;-78
2021/08/20 09:14:31;;;;;;;10.70;9.63;;;;;;;20.79;63.36;101100.06;5036852;28;20876;-78
2021/08/20 09:16:56;;;;;;;10.93;9.80;;;;;;;20.85;62.99;101089.31;5020670;28;20425;-78
2021/08/20 09:19:22;;;;;;;10.20;9.13;;;;;;;21.10;62.73;101098.34;5038244;28;20452;-78
2021/08/20 09:21:56;;;;;;;11.33;10.23;;;;;;;20.44;63.82;101099.19;5039051;28;20232;-79
2021/08/20 09:24:39;;;;;;;10.73;9.73;;;;;;;20.14;64.93;101098.19;5038030;28;20474;-78
2021/08/20 09:27:18;;;;;;;13.30;11.47;;;;;;;20.12;65.08;101094.69;5038284;28;20421;-78
2021/08/20 09:30:08;;;;;;;12.63;10.97;;;;;;;19.56;68.01;101098.59;5038462;28;20413;-79
2021/08/20 09:32:52;;;;;;;13.30;11.80;;;;;;;19.91;65.11;101090.81;5038267;28;20421;-79
2021/08/20 09:35:18;;;;;;;15.17;13.53;;;;;;;20.56;63.95;101087.41;5038181;28;20512;-78
2021/08/20 09:37:43;;;;;;;12.73;11.70;;;;;;;20.43;64.04;101092.16;5038275;28;20435;-78
2021/08/20 09:40:11;;;;;;;13.87;11.80;;;;;;;20.00;66.27;101090.59;5037965;28;20636;-78
2021/08/20 09:42:37;;;;;;;13.40;12.10;;;;;;;20.12;64.75;101089.41;5038169;28;20170;-79
2021/08/20 09:45:17;;;;;;;15.07;13.67;;;;;;;19.61;66.87;101090.56;5021641;28;20421;-78
2021/08/20 09:48:00;;;;;;;13.37;12.07;;;;;;;19.45;66.86;101095.31;5038284;28;20174;-78
2021/08/20 09:50:40;;;;;;;15.90;12.60;;;;;;;18.80;69.78;101105.38;5038063;28;20420;-77
2021/08/20 09:53:10;;;;;;;13.87;12.17;;;;;;;18.82;71.59;101113.28;5038266;28;20431;-79
2021/08/20 09:55:37;;;;;;;15.57;13.87;;;;;;;18.29;74.02;101110.69;5020964;28;20420;-77
2021/08/20 09:58:05;;;;;;;16.17;14.60;;;;;;;18.61;73.58;101112.78;5038190;28;20432;-78
2021/08/20 10:00:32;;;;;;;15.93;14.40;;;;;;;18.68;74.79;101108.25;5021026;28;20461;-78
2021/08/20 10:02:57;;;;;;;16.00;14.30;;;;;;;19.26;73.01;101105.41;5021082;28;20445;-78
2021/08/20 10:05:23;;;;;;;16.37;14.40;;;;;;;19.22;73.30;101103.75;5038072;28;20555;-80
2021/08/20 10:07:49;;;;;;;16.60;15.00;;;;;;;19.69;72.20;101104.50;5038110;28;20528;-78
2021/08/20 10:10:14;;;;;;;13.40;12.00;;;;;;;19.82;69.46;101095.41;5022036;28;20412;-78
2021/08/20 10:12:40;;;;;;;14.63;13.23;;;;;;;20.21;69.51;101096.25;5041864;28;20711;-78
2021/08/20 10:15:07;;;;;;;13.80;12.50;;;;;;;20.34;69.29;101100.34;5024452;28;20198;-78
2021/08/20 10:17:32;;;;;;;14.13;12.67;;;;;;;20.33;68.84;101088.00;5042166;28;20176;-77
2021/08/20 10:19:59;;;;;;;13.30;11.90;;;;;;;20.94;67.56;101092.59;5041447;28;20558;-78
2021/08/20 10:22:24;;;;;;;14.00;12.70;;;;;;;20.86;66.90;101088.41;5041478;28;20236;-77
2021/08/20 10:24:50;;;;;;;12.90;11.70;;;;;;;21.03;66.90;101092.34;5041317;28;20461;-78
2021/08/20 10:27:16;;;;;;;14.27;12.97;;;;;;;20.81;66.64;101105.31;5041506;28;20182;-78
2021/08/20 10:29:47;;;;;;;13.33;12.13;;;;;;;20.48;67.92;101106.13;5024617;28;20166;-78
2021/08/20 10:32:14;;;;;;;13.17;11.87;;;;;;;20.96;66.48;101102.25;5024496;28;21671;-78
2021/08/20 10:34:41;;;;;;;14.00;12.70;;;;;;;21.91;63.36;101103.00;5041201;28;20409;-78
2021/08/20 10:37:07;;;;;;;11.30;10.30;;;;;;;22.75;61.57;101101.09;5041822;28;20436;-77
2021/08/20 10:39:34;;;;;;;11.93;10.90;;;;;;;23.32;58.02;101096.38;5041142;28;20483;-77
2021/08/20 10:42:14;;;;;;;11.57;10.40;;;;;;;22.40;61.03;101097.03;5041179;28;20478;-77
2021/08/20 10:44:53;;;;;;;12.70;11.50;;;;;;;21.94;63.20;101096.72;5040850;28;20416;-77
2021/08/20 10:47:26;;;;;;;15.53;13.90;;;;;;;22.05;63.38;101097.25;5040733;28;20490;-77
2021/08/20 10:50:06;;;;;;;12.27;11.17;;;;;;;22.45;62.14;101098.59;5040946;28;20409;-77
2021/08/20 10:52:33;;;;;;;13.37;11.97;;;;;;;21.26;64.99;101109.38;5040934;28;20504;-77
2021/08/20 10:54:58;;;;;;;14.20;12.90;;;;;;;22.32;62.95;101107.88;5040821;28;20690;-77
2021/08/20 10:57:39;;;;;;;11.90;10.80;;;;;;;22.45;61.05;101103.06;5041253;28;20444;-75
2021/08/20 11:00:19;;;;;;;11.60;10.50;;;;;;;22.32;61.32;101110.53;5040838;28;20213;-77
2021/08/20 11:02:55;;;;;;;11.77;10.77;;;;;;;22.48;60.37;101101.16;5040527;28;20657;-74
2021/08/20 11:05:41;;;;;;;11.40;10.40;;;;;;;22.16;60.20;101118.13;5021187;28;20534;-76
2021/08/20 11:08:28;;;;;;;10.27;9.40;;;;;;;22.58;57.75;101095.53;5040448;28;20460;-73
2021/08/20 11:10:55;;;;;;;11.00;10.10;;;;;;;22.57;58.59;101107.06;5040592;28;20407;-74
2021/08/20 11:13:20;;;;;;;10.07;9.17;;;;;;;21.98;59.80;101103.69;5024691;28;20459;-75
2021/08/20 11:15:46;;;;;;;10.10;9.20;;;;;;;22.95;57.99;101095.06;5040622;28;20417;-74